Impacts TAF Board INFO
FOR SITUATIONAL AWARENESS. NOT TO BE USED FOR FLIGHT PLANNING PURPOSES.
IDs:

KJFK - New York/Kennedy Int, NY, US

Issued at 1531 UTC 28 Feb 2017
Updated at 1646 UTC 28 Feb 2017
Potential Impact None Slight Moderate High
Time1628Z 28/17Z 28/18Z 28/19Z 28/20Z 28/21Z 28/22Z 28/23Z 01/00Z 01/01Z 01/02Z 01/03Z 01/04Z 01/05Z
Type OBS PRVL PRVL PRVL PRVL PRVL PRVL PRVL PRVL PRVL PRVL PRVL PRVL PRVL
VIS 10 >6 >6 >6 >6 >6 >6 >6 3 3 1 1 1 1
CIG 15 -- -- -- -- 20 20 20 6 6 5 5 5 5
Cover BKN SCT SCT SCT SCT OVC OVC OVC OVC OVC OVC OVC OVC OVC
FltCat MVFR VFR VFR VFR VFR MVFR MVFR MVFR IFR IFR IFR IFR IFR IFR
WX -- -- -- -- -- -- -- -- BR BR RA BR RA BR RA BR RA BR
WDir 120 120 120 120 120 130 130 130 150 150 160 160 160 160
WSpd 5 8 8 8 8 10 10 10 10 10 10 10 10 10
WGst -- -- -- -- -- -- -- -- -- -- -- -- -- --

Raw TAF
KJFK 281531Z 2816/0118 12008KT P6SM FEW010 SCT035
  TEMPO 2816/2817 BKN030
  FM282100 13010KT P6SM BKN020 OVC040
  FM010000 15010KT 3SM BR BKN006 OVC010
  FM010200 16010KT 1SM RA BR OVC005
  FM010700 18010KT 1SM -RA BR OVC004 WS020/24045KT
  FM010900 19009KT 3SM BR OVC004 WS020/24045KT
  FM011500 21013G21KT 5SM BR OVC008
  PROB30 0115/0117 3SM RA


Raw METAR
KJFK 281628Z 12005KT 10SM BKN015 BKN030 13/08 A3034 RMK AO2 T01330078
KJFK 281551Z 13006KT 10SM BKN030 13/08 A3034 RMK AO2 SLP275 T01280078
KJFK 281451Z 12007KT 10SM SCT032 SCT250 12/08 A3036 RMK AO2 SLP279 T01170078 58000
KJFK 281351Z 07005KT 10SM SCT032 BKN250 10/07 A3036 RMK AO2 SLP282 TCU DSNT S T01000067

METAR Board
Radar Display
Forecast Discussion

FOR SITUATIONAL AWARENESS. NOT TO BE USED FOR FLIGHT PLANNING PURPOSES.

Page loaded:  16:46 UTC  |   08:46 AM Pacific  |   09:46 AM Mountain  |   10:46 AM Central  |   11:46 AM Eastern

 

ADVISORIES

FORECASTS

FORECASTS

OBSERVATIONS

USER TOOLS

ABOUT US